Springhill, Texas
Current Conditions -  °F | °C
As of 9:55 PM on Thursday 27 Nov 2014 (Local Time) from KLXY Reporting Station
Clear Clear  
Wind Chill: 47°   Ceiling: Unl
Heat Index: 47°   Visibility: 10mi
Dew Point: 30°   Wind: 3mph
Humidity: 53%   Direction: 170°S
Pressure: 30.38"   Gusts: NA
Location:  31.8746°N, 96.6599°W
Report Text: KLXY 280355Z AUTO 17003KT 10SM CLR 08/M01 A3038 RMK AO2 T00811009
Loading
Personal Weather Stations






























Interactive Weather Map New forecast layout! Learn more

10-Day Weather Forecast

Advertisements
Track Severe Weather on mobile